createdAt,value
2018-03-25T00:00:46.922Z,80.60
2018-03-25T00:03:14.482Z,80.90
2018-03-25T00:05:42.010Z,81.20
2018-03-25T00:08:09.580Z,81.40
2018-03-25T00:10:37.879Z,82.00
2018-03-25T00:13:05.426Z,81.90
2018-03-25T00:15:33.738Z,82.10
2018-03-25T00:18:01.289Z,82.10
2018-03-25T00:20:29.590Z,82.70
2018-03-25T00:22:57.908Z,82.80
2018-03-25T00:25:25.442Z,82.70
2018-03-25T00:27:53.758Z,83.40
2018-03-25T00:30:21.306Z,83.30
2018-03-25T00:32:49.669Z,83.20
2018-03-25T00:35:17.201Z,83.20
2018-03-25T00:37:44.746Z,83.20
2018-03-25T00:40:13.051Z,84.10
2018-03-25T00:42:40.618Z,84.10
2018-03-25T00:45:08.915Z,84.40
2018-03-25T00:47:36.469Z,84.40
2018-03-25T00:50:04.792Z,84.20
2018-03-25T00:52:32.352Z,84.20
2018-03-25T00:54:59.887Z,84.10
2018-03-25T00:57:27.442Z,84.40
2018-03-25T00:59:54.976Z,85.30
2018-03-25T01:02:22.546Z,84.90
2018-03-25T01:04:50.066Z,84.90
2018-03-25T01:07:17.627Z,85.10
2018-03-25T01:09:45.186Z,84.90
2018-03-25T01:12:12.719Z,85.20
2018-03-25T01:14:40.269Z,85.10
2018-03-25T01:17:08.567Z,85.50
2018-03-25T01:19:36.905Z,85.40
2018-03-25T01:22:04.442Z,85.20
2018-03-25T01:24:31.999Z,85.30
2018-03-25T01:27:00.312Z,85.90
2018-03-25T01:29:27.863Z,85.80
2018-03-25T01:31:56.166Z,85.80
2018-03-25T01:34:23.736Z,85.80
2018-03-25T01:36:51.279Z,85.90
2018-03-25T01:39:18.836Z,85.90
2018-03-25T01:41:46.372Z,86.00
2018-03-25T01:44:13.919Z,86.30
2018-03-25T01:46:42.214Z,85.90
2018-03-25T01:49:09.799Z,85.90
2018-03-25T01:51:37.334Z,85.70
2018-03-25T01:54:04.898Z,85.60
2018-03-25T01:56:32.435Z,86.50
2018-03-25T01:58:59.978Z,86.10
2018-03-25T02:01:27.528Z,86.40
2018-03-25T02:03:55.879Z,86.50
2018-03-25T02:06:23.406Z,86.50
2018-03-25T02:08:51.705Z,86.50
2018-03-25T02:11:19.248Z,86.40
2018-03-25T02:13:47.554Z,86.50
2018-03-25T02:16:15.867Z,86.50
2018-03-25T02:18:43.394Z,86.50
2018-03-25T02:21:10.953Z,86.80
2018-03-25T02:23:38.478Z,87.10
2018-03-25T02:26:06.040Z,87.20
2018-03-25T02:28:33.572Z,87.20
2018-03-25T02:31:01.155Z,87.60
2018-03-25T02:33:28.716Z,87.90
2018-03-25T02:35:56.275Z,87.90
2018-03-25T02:38:23.798Z,88.40
2018-03-25T02:40:51.361Z,88.10
2018-03-25T02:43:19.654Z,88.10
2018-03-25T02:45:47.981Z,87.80
2018-03-25T02:48:15.516Z,87.80
2018-03-25T02:50:43.839Z,88.40
2018-03-25T02:53:12.420Z,88.40
2018-03-25T02:55:39.980Z,88.50
2018-03-25T02:58:07.516Z,88.20
2018-03-25T03:00:35.072Z,88.20
2018-03-25T03:03:02.615Z,88.50
2018-03-25T03:05:30.211Z,88.40
2018-03-25T03:07:57.742Z,88.70
2018-03-25T03:10:25.294Z,88.90
2018-03-25T03:12:53.587Z,89.30
2018-03-25T03:15:21.903Z,89.50
2018-03-25T03:17:50.198Z,89.40
2018-03-25T03:20:17.750Z,89.40
2018-03-25T03:22:46.071Z,89.00
2018-03-25T03:25:13.614Z,88.90
2018-03-25T03:27:41.172Z,88.40
2018-03-25T03:30:09.480Z,88.20
2018-03-25T03:32:37.040Z,88.20
2018-03-25T03:35:05.335Z,88.40
2018-03-25T03:37:33.657Z,88.30
2018-03-25T03:40:01.206Z,88.40
2018-03-25T03:42:28.755Z,88.80
2018-03-25T03:44:57.060Z,88.90
2018-03-25T03:47:24.627Z,88.80
2018-03-25T03:49:52.944Z,89.40
2018-03-25T03:52:20.507Z,89.30
2018-03-25T03:54:48.045Z,89.40
2018-03-25T03:57:16.396Z,89.70
2018-03-25T03:59:43.938Z,89.70
2018-03-25T04:02:11.482Z,89.70
2018-03-25T04:04:39.034Z,89.70
2018-03-25T04:07:06.578Z,89.80
2018-03-25T04:09:34.110Z,89.80
2018-03-25T04:12:02.434Z,89.80
2018-03-25T04:14:29.965Z,89.70
2018-03-25T04:16:58.282Z,89.80
2018-03-25T04:19:25.819Z,89.70
2018-03-25T04:21:53.370Z,89.70
2018-03-25T04:24:20.931Z,89.70
2018-03-25T04:26:48.484Z,90.00
2018-03-25T04:29:16.027Z,90.30
2018-03-25T04:31:44.324Z,90.10
2018-03-25T04:34:11.894Z,90.10
2018-03-25T04:36:39.427Z,90.00
2018-03-25T04:39:06.979Z,90.10
2018-03-25T04:41:34.522Z,90.10
2018-03-25T04:44:02.071Z,90.00
2018-03-25T04:46:30.425Z,90.40
2018-03-25T04:48:57.946Z,90.30
2018-03-25T04:51:25.479Z,90.50
2018-03-25T04:53:53.038Z,90.40
2018-03-25T04:56:20.571Z,90.00
2018-03-25T04:58:48.138Z,90.10
2018-03-25T05:01:15.667Z,90.20
2018-03-25T05:03:43.218Z,90.10
2018-03-25T05:06:10.747Z,90.10
2018-03-25T05:08:38.298Z,90.10
2018-03-25T05:11:06.611Z,90.00
2018-03-25T05:13:34.170Z,90.00
2018-03-25T05:16:02.462Z,89.70
2018-03-25T05:18:30.779Z,89.70
2018-03-25T05:20:58.334Z,89.70
2018-03-25T05:23:25.882Z,89.80
2018-03-25T05:25:54.174Z,90.10
2018-03-25T05:28:22.494Z,90.00
2018-03-25T05:30:50.067Z,90.00
2018-03-25T05:33:17.619Z,89.70
2018-03-25T05:35:45.146Z,89.70
2018-03-25T05:38:12.691Z,89.70
2018-03-25T05:40:40.220Z,89.80
2018-03-25T05:43:08.551Z,89.10
2018-03-25T05:45:36.093Z,89.10
2018-03-25T05:48:04.394Z,88.10
2018-03-25T05:50:31.955Z,88.10
2018-03-25T05:53:00.249Z,87.40
2018-03-25T05:55:27.823Z,87.40
2018-03-25T05:57:55.360Z,87.10
2018-03-25T06:00:22.911Z,86.70
2018-03-25T06:02:50.442Z,86.10
2018-03-25T06:05:17.991Z,85.70
2018-03-25T06:07:45.519Z,85.40
2018-03-25T06:10:13.074Z,85.10
2018-03-25T06:12:40.622Z,84.70
2018-03-25T06:15:09.031Z,83.40
2018-03-25T06:17:36.566Z,83.40
2018-03-25T06:20:04.142Z,83.50
2018-03-25T06:22:31.771Z,83.50
2018-03-25T06:24:59.330Z,82.60
2018-03-25T06:27:26.913Z,82.20
2018-03-25T06:29:54.458Z,82.00
2018-03-25T06:32:22.751Z,81.30
2018-03-25T06:34:50.531Z,81.30
2018-03-25T06:37:18.083Z,80.60
2018-03-25T06:39:46.427Z,80.30
2018-03-25T06:42:13.960Z,80.30
2018-03-25T06:44:42.287Z,79.80
2018-03-25T06:47:09.819Z,79.80
2018-03-25T06:49:37.442Z,79.70
2018-03-25T06:52:04.975Z,79.80
2018-03-25T06:54:32.551Z,79.70
2018-03-25T06:57:00.117Z,79.60
2018-03-25T06:59:27.648Z,79.50
2018-03-25T07:01:55.257Z,79.10
2018-03-25T07:04:22.758Z,78.80
2018-03-25T07:06:50.327Z,78.40
2018-03-25T07:09:17.859Z,77.90
2018-03-25T07:11:46.183Z,77.60
2018-03-25T07:14:13.714Z,77.60
2018-03-25T07:16:42.034Z,77.50
2018-03-25T07:19:09.595Z,77.50
2018-03-25T07:21:37.161Z,77.20
2018-03-25T07:24:05.496Z,76.60
2018-03-25T07:26:33.058Z,76.60
2018-03-25T07:29:00.599Z,76.50
2018-03-25T07:31:28.911Z,76.10
2018-03-25T07:33:56.453Z,76.10
2018-03-25T07:36:24.786Z,75.40
2018-03-25T07:38:52.347Z,75.40
2018-03-25T07:41:19.919Z,75.00
2018-03-25T07:43:47.443Z,75.00
2018-03-25T07:46:15.379Z,75.20
2018-03-25T07:48:42.902Z,75.50
2018-03-25T07:51:10.455Z,75.40
2018-03-25T07:53:37.982Z,75.00
2018-03-25T07:56:05.546Z,74.60
2018-03-25T07:58:33.068Z,74.60
2018-03-25T08:01:00.615Z,74.50
2018-03-25T08:03:28.138Z,74.30
2018-03-25T08:05:56.422Z,73.00
2018-03-25T08:08:24.744Z,73.80
2018-03-25T08:10:52.268Z,73.00
2018-03-25T08:13:19.828Z,72.70
2018-03-25T08:15:47.361Z,72.10
2018-03-25T08:18:14.926Z,71.90
2018-03-25T08:20:42.466Z,71.50
2018-03-25T08:23:10.014Z,72.10
2018-03-25T08:25:37.552Z,71.70
2018-03-25T08:28:05.183Z,71.70
2018-03-25T08:30:32.723Z,71.70
2018-03-25T08:33:00.260Z,71.40
2018-03-25T08:35:36.186Z,70.70
2018-03-25T08:38:03.727Z,70.60
2018-03-25T08:40:31.248Z,70.70
2018-03-25T08:42:59.563Z,69.60
2018-03-25T08:45:27.089Z,69.50
2018-03-25T08:47:54.639Z,68.90
2018-03-25T08:50:22.149Z,68.60
2018-03-25T08:52:49.719Z,68.00
2018-03-25T08:55:17.239Z,67.40
2018-03-25T08:57:44.794Z,66.70
2018-03-25T09:00:21.178Z,65.60
2018-03-25T09:02:48.724Z,65.30
2018-03-25T09:05:17.009Z,65.10
2018-03-25T09:07:45.330Z,65.90
2018-03-25T09:10:12.845Z,65.10
2018-03-25T09:12:40.397Z,64.40
2018-03-25T09:15:07.914Z,64.30
2018-03-25T09:17:35.464Z,64.10
2018-03-25T09:20:03.035Z,64.60
2018-03-25T09:22:30.568Z,64.80
2018-03-25T09:24:58.085Z,64.30
2018-03-25T09:27:25.620Z,64.30
2018-03-25T09:29:53.156Z,63.80
2018-03-25T09:32:21.468Z,63.30
2018-03-25T09:34:48.981Z,63.20
2018-03-25T09:37:16.521Z,63.00
2018-03-25T09:39:44.080Z,63.20
2018-03-25T09:42:11.597Z,61.90
2018-03-25T09:44:39.154Z,61.30
2018-03-25T09:47:07.433Z,61.00
2018-03-25T09:49:34.986Z,60.90
2018-03-25T09:52:02.606Z,60.60
2018-03-25T09:54:30.145Z,60.60
2018-03-25T09:56:57.672Z,61.20
2018-03-25T09:59:25.989Z,59.30
2018-03-25T10:01:59.302Z,60.20
2018-03-25T10:04:26.860Z,58.80
2018-03-25T10:06:54.376Z,59.00
2018-03-25T10:09:21.939Z,58.80
2018-03-25T10:11:49.467Z,58.60
2018-03-25T10:14:17.776Z,58.30
2018-03-25T10:16:45.343Z,58.10
2018-03-25T10:19:12.882Z,58.00
2018-03-25T10:21:40.404Z,57.90
2018-03-25T10:24:07.962Z,58.00
2018-03-25T10:26:36.327Z,58.10
2018-03-25T10:29:04.664Z,59.80
2018-03-25T10:31:32.202Z,59.70
2018-03-25T10:33:59.736Z,59.90
2018-03-25T10:36:28.076Z,60.70
2018-03-25T10:38:55.600Z,60.60
2018-03-25T10:41:23.153Z,60.40
2018-03-25T10:43:50.685Z,59.90
2018-03-25T10:46:18.226Z,59.90
2018-03-25T10:48:45.755Z,60.10
2018-03-25T10:51:13.293Z,60.00
2018-03-25T10:53:41.583Z,60.20
2018-03-25T10:56:09.142Z,60.20
2018-03-25T10:58:37.433Z,60.20
2018-03-25T11:03:51.333Z,59.90
2018-03-25T11:06:18.891Z,59.90
2018-03-25T11:08:46.448Z,59.70
2018-03-25T11:11:14.020Z,59.20
2018-03-25T11:13:41.537Z,59.10
2018-03-25T11:16:09.096Z,60.40
2018-03-25T11:18:36.620Z,59.80
2018-03-25T11:21:04.195Z,59.60
2018-03-25T11:23:32.558Z,58.70
2018-03-25T11:26:01.004Z,58.70
2018-03-25T11:28:29.292Z,58.40
2018-03-25T11:30:57.606Z,57.80
2018-03-25T11:33:25.142Z,57.70
2018-03-25T11:35:52.736Z,57.00
2018-03-25T11:38:21.017Z,55.90
2018-03-25T11:40:49.318Z,55.30
2018-03-25T11:43:17.604Z,54.70
2018-03-25T11:45:45.924Z,55.00
2018-03-25T11:48:13.462Z,55.00
2018-03-25T11:50:41.768Z,54.50
2018-03-25T11:53:09.366Z,54.50
2018-03-25T11:55:37.658Z,53.00
2018-03-25T11:58:05.220Z,53.00
2018-03-25T12:00:32.762Z,52.90
2018-03-25T12:03:01.076Z,52.50
2018-03-25T12:05:28.609Z,52.50
2018-03-25T12:07:56.223Z,52.70
2018-03-25T12:10:23.763Z,52.30
2018-03-25T12:12:52.093Z,53.30
2018-03-25T12:15:19.636Z,53.30
2018-03-25T12:17:47.971Z,53.60
2018-03-25T12:20:15.520Z,53.70
2018-03-25T12:22:43.081Z,53.70
2018-03-25T12:25:10.656Z,53.50
2018-03-25T12:27:38.233Z,53.30
2018-03-25T12:30:06.564Z,52.40
2018-03-25T12:32:34.134Z,52.40
2018-03-25T12:35:02.448Z,52.30
2018-03-25T12:37:30.781Z,52.00
2018-03-25T12:39:58.326Z,51.90
2018-03-25T12:42:26.668Z,52.40
2018-03-25T12:44:54.210Z,52.40
2018-03-25T12:47:21.780Z,53.00
2018-03-25T12:49:49.351Z,52.90
2018-03-25T12:52:17.691Z,52.80
2018-03-25T12:54:45.223Z,53.40
2018-03-25T12:57:12.787Z,49.90
2018-03-25T12:59:40.389Z,49.60
2018-03-25T13:02:07.945Z,49.20
2018-03-25T13:04:35.499Z,50.00
2018-03-25T13:07:03.050Z,49.40
2018-03-25T13:09:32.232Z,48.80
2018-03-25T13:11:59.787Z,48.70
2018-03-25T13:14:27.323Z,49.30
2018-03-25T13:16:54.908Z,49.60
2018-03-25T13:19:22.450Z,49.40
2018-03-25T13:21:50.775Z,49.80
2018-03-25T13:24:18.335Z,49.70
2018-03-25T13:26:45.877Z,49.20
2018-03-25T13:29:13.424Z,50.30
2018-03-25T13:31:40.969Z,49.50
2018-03-25T13:34:08.520Z,49.60
2018-03-25T13:36:36.054Z,49.80
2018-03-25T13:39:03.619Z,49.50
2018-03-25T13:41:31.150Z,49.70
2018-03-25T13:43:58.729Z,49.30
2018-03-25T13:46:26.285Z,49.50
2018-03-25T13:48:53.852Z,49.60
2018-03-25T13:51:21.390Z,50.20
2018-03-25T13:53:48.953Z,50.50
2018-03-25T13:56:16.504Z,50.30
2018-03-25T13:58:44.094Z,51.20
2018-03-25T14:01:11.659Z,50.80
2018-03-25T14:03:39.225Z,50.80
2018-03-25T14:06:06.755Z,50.30
2018-03-25T14:08:35.088Z,50.40
2018-03-25T14:11:02.625Z,50.20
2018-03-25T14:13:30.190Z,49.80
2018-03-25T14:15:57.726Z,49.50
2018-03-25T14:18:25.291Z,49.50
2018-03-25T14:20:52.879Z,49.50
2018-03-25T14:23:20.435Z,49.50
2018-03-25T14:25:48.093Z,49.80
2018-03-25T14:28:15.678Z,49.30
2018-03-25T14:30:43.235Z,49.70
2018-03-25T14:33:10.811Z,49.60
2018-03-25T14:35:38.374Z,50.10
2018-03-25T14:38:05.922Z,50.20
2018-03-25T14:40:33.873Z,50.30
2018-03-25T14:43:01.414Z,50.30
2018-03-25T14:45:28.971Z,51.10
2018-03-25T14:47:56.566Z,50.60
2018-03-25T14:50:24.119Z,50.60
2018-03-25T14:52:51.660Z,50.70
2018-03-25T14:55:19.206Z,50.60
2018-03-25T14:57:46.738Z,51.10
2018-03-25T15:00:14.284Z,50.60
2018-03-25T15:02:41.822Z,50.60
2018-03-25T15:05:10.151Z,50.40
2018-03-25T15:07:37.690Z,50.40
2018-03-25T15:10:05.242Z,50.70
2018-03-25T15:12:33.584Z,51.00
2018-03-25T15:15:01.135Z,50.60
2018-03-25T15:17:29.439Z,51.20
2018-03-25T15:19:56.994Z,51.10
2018-03-25T15:22:25.320Z,51.00
2018-03-25T15:24:52.887Z,51.10
2018-03-25T15:27:20.436Z,51.30
2018-03-25T15:29:48.024Z,51.40
2018-03-25T15:32:15.562Z,51.20
2018-03-25T15:34:43.887Z,51.30
2018-03-25T15:37:11.423Z,51.30
2018-03-25T15:39:38.988Z,51.90
2018-03-25T15:42:06.540Z,51.80
2018-03-25T15:44:34.086Z,51.70
2018-03-25T15:47:01.648Z,51.80
2018-03-25T15:49:29.208Z,51.90
2018-03-25T15:51:56.771Z,51.50
2018-03-25T15:54:25.084Z,51.60
2018-03-25T15:56:52.640Z,51.60
2018-03-25T15:59:20.199Z,51.70
2018-03-25T16:01:48.565Z,51.50
2018-03-25T16:04:16.102Z,51.50
2018-03-25T16:06:43.669Z,51.00
2018-03-25T16:09:11.232Z,51.40
2018-03-25T16:11:38.791Z,51.90
2018-03-25T16:14:07.113Z,51.80
2018-03-25T16:16:34.660Z,51.70
2018-03-25T16:19:02.219Z,51.70
2018-03-25T16:21:30.558Z,51.70
2018-03-25T16:23:58.177Z,51.70
2018-03-25T16:26:26.495Z,52.30
2018-03-25T16:28:54.027Z,51.70
2018-03-25T16:31:21.590Z,51.70
2018-03-25T16:33:49.138Z,52.40
2018-03-25T16:36:16.694Z,51.60
2018-03-25T16:38:44.234Z,52.10
2018-03-25T16:41:12.546Z,51.50
2018-03-25T16:43:40.090Z,51.40
2018-03-25T16:46:08.415Z,51.90
2018-03-25T16:48:35.942Z,51.80
2018-03-25T16:51:04.287Z,52.20
2018-03-25T16:53:31.836Z,52.20
2018-03-25T16:55:59.386Z,52.50
2018-03-25T16:58:27.682Z,52.70
2018-03-25T17:00:55.230Z,52.70
2018-03-25T17:03:23.564Z,53.20
2018-03-25T17:05:51.127Z,53.20
2018-03-25T17:08:18.672Z,53.40
2018-03-25T17:10:46.983Z,53.80
2018-03-25T17:13:14.559Z,53.80
2018-03-25T17:15:42.106Z,53.70
2018-03-25T17:18:10.437Z,54.30
2018-03-25T17:20:37.975Z,54.10
2018-03-25T17:23:06.308Z,54.90
2018-03-25T17:25:33.857Z,54.80
2018-03-25T17:28:01.415Z,55.10
2018-03-25T17:30:29.715Z,55.90
2018-03-25T17:32:57.283Z,55.90
2018-03-25T17:35:24.823Z,56.20
2018-03-25T17:37:52.431Z,56.70
2018-03-25T17:40:19.978Z,57.00
2018-03-25T17:42:47.527Z,57.80
2018-03-25T17:45:20.899Z,57.70
2018-03-25T17:47:48.480Z,57.70
2018-03-25T17:50:16.026Z,57.90
2018-03-25T17:52:43.589Z,58.50
2018-03-25T17:55:12.109Z,59.00
2018-03-25T17:57:40.448Z,59.10
2018-03-25T18:00:08.025Z,59.10
2018-03-25T18:02:36.355Z,61.50
2018-03-25T18:05:03.896Z,60.80
2018-03-25T18:07:31.739Z,61.30
2018-03-25T18:09:59.271Z,61.80
2018-03-25T18:12:26.823Z,62.20
2018-03-25T18:14:55.892Z,62.80
2018-03-25T18:17:34.106Z,62.80
2018-03-25T18:19:51.487Z,63.00
2018-03-25T18:22:20.000Z,63.00
2018-03-25T18:24:47.750Z,63.00
2018-03-25T18:27:15.642Z,63.20
2018-03-25T18:29:45.000Z,63.80
2018-03-25T18:32:14.079Z,63.80
2018-03-25T18:34:43.601Z,63.80
2018-03-25T18:37:11.163Z,63.90
2018-03-25T18:39:38.736Z,64.60
2018-03-25T18:42:06.334Z,64.40
2018-03-25T18:44:33.925Z,64.50
2018-03-25T18:47:01.454Z,64.60
2018-03-25T18:49:30.926Z,64.10
2018-03-25T18:51:58.448Z,64.10
2018-03-25T18:54:26.013Z,64.90
2018-03-25T18:56:54.295Z,64.60
2018-03-25T18:59:23.937Z,64.80
2018-03-25T19:01:51.463Z,64.70
2018-03-25T19:04:19.964Z,65.20
2018-03-25T19:06:48.727Z,65.10
2018-03-25T19:09:16.384Z,65.10
2018-03-25T19:11:44.064Z,65.90
2018-03-25T19:14:11.851Z,65.10
2018-03-25T19:16:40.393Z,65.10
2018-03-25T19:19:09.202Z,65.10
2018-03-25T19:21:36.847Z,65.00
2018-03-25T19:24:04.567Z,64.60
2018-03-25T19:26:32.987Z,64.30
2018-03-25T19:29:01.830Z,64.30
2018-03-25T19:31:29.369Z,64.30
2018-03-25T19:33:56.949Z,64.30
2018-03-25T19:36:24.461Z,64.40
2018-03-25T19:38:52.939Z,65.00
2018-03-25T19:41:26.976Z,64.40
2018-03-25T19:43:54.544Z,64.30
2018-03-25T19:46:22.122Z,64.40
2018-03-25T19:48:49.757Z,65.10
2018-03-25T19:51:17.374Z,64.80
2018-03-25T19:53:45.012Z,64.90
2018-03-25T19:56:12.567Z,64.90
2018-03-25T19:58:40.120Z,64.90
2018-03-25T20:01:08.495Z,64.90
2018-03-25T20:03:36.910Z,65.00
2018-03-25T20:06:04.540Z,65.00
2018-03-25T20:08:32.679Z,64.90
2018-03-25T20:11:03.994Z,65.00
2018-03-25T20:13:32.687Z,65.00
2018-03-25T20:16:01.021Z,64.90
2018-03-25T20:18:28.644Z,64.90
2018-03-25T20:20:58.039Z,64.90
2018-03-25T20:23:25.580Z,65.70
2018-03-25T20:25:53.797Z,65.60
2018-03-25T20:28:21.335Z,65.20
2018-03-25T20:30:48.940Z,64.90
2018-03-25T20:33:17.571Z,64.80
2018-03-25T20:35:45.912Z,64.80
2018-03-25T20:38:14.893Z,65.10
2018-03-25T20:40:42.459Z,64.80
2018-03-25T20:43:10.856Z,64.80
2018-03-25T20:45:39.360Z,64.70
2018-03-25T20:48:06.906Z,64.70
2018-03-25T20:50:35.664Z,64.70
2018-03-25T20:53:03.207Z,64.60
2018-03-25T20:55:31.747Z,65.00
2018-03-25T20:58:00.224Z,65.00
2018-03-25T21:00:27.804Z,65.00
2018-03-25T21:02:57.056Z,65.00
2018-03-25T21:05:25.426Z,65.10
2018-03-25T21:07:53.119Z,65.00
2018-03-25T21:10:24.604Z,65.30
2018-03-25T21:12:53.561Z,65.20
2018-03-25T21:15:21.147Z,66.30
2018-03-25T21:17:48.736Z,66.10
2018-03-25T21:20:17.303Z,65.90
2018-03-25T21:22:44.838Z,65.90
2018-03-25T21:25:12.547Z,65.70
2018-03-25T21:27:40.112Z,65.60
2018-03-25T21:30:09.638Z,65.80
2018-03-25T21:32:37.416Z,66.20
2018-03-25T21:35:05.844Z,66.40
2018-03-25T21:37:34.412Z,66.50
2018-03-25T21:40:02.744Z,67.00
2018-03-25T21:42:31.168Z,67.00
2018-03-25T21:45:00.429Z,67.10
2018-03-25T21:47:28.102Z,67.50
2018-03-25T21:49:56.525Z,67.50
2018-03-25T21:52:28.400Z,67.60
2018-03-25T21:54:55.994Z,67.60
2018-03-25T21:57:24.386Z,67.80
2018-03-25T21:59:51.936Z,67.80
2018-03-25T22:02:19.499Z,67.90
2018-03-25T22:04:47.634Z,67.80
2018-03-25T22:07:15.221Z,67.80
2018-03-25T22:09:42.813Z,67.80
2018-03-25T22:12:11.151Z,67.80
2018-03-25T22:14:38.714Z,67.70
2018-03-25T22:17:06.475Z,67.40
2018-03-25T22:19:34.033Z,67.60
2018-03-25T22:22:02.365Z,68.50
2018-03-25T22:24:29.900Z,67.70
2018-03-25T22:26:57.479Z,67.70
2018-03-25T22:29:25.020Z,67.80
2018-03-25T22:31:52.591Z,67.70
2018-03-25T22:34:20.155Z,67.60
2018-03-25T22:36:47.695Z,67.70
2018-03-25T22:39:15.261Z,67.60
2018-03-25T22:41:42.790Z,67.80
2018-03-25T22:44:10.343Z,67.90
2018-03-25T22:46:37.898Z,68.60
2018-03-25T22:49:05.458Z,68.10
2018-03-25T22:51:33.002Z,67.50
2018-03-25T22:54:00.560Z,67.50
2018-03-25T22:56:28.128Z,67.80
2018-03-25T22:58:55.790Z,68.20
2018-03-25T23:01:24.094Z,69.40
2018-03-25T23:03:52.464Z,68.90
2018-03-25T23:06:20.799Z,68.90
2018-03-25T23:08:48.364Z,68.90
2018-03-25T23:11:15.898Z,69.30
2018-03-25T23:13:43.478Z,69.30
2018-03-25T23:16:11.010Z,69.80
2018-03-25T23:18:38.563Z,69.30
2018-03-25T23:21:06.101Z,69.70
2018-03-25T23:23:34.425Z,70.30
2018-03-25T23:26:01.952Z,70.20
2018-03-25T23:28:29.521Z,70.80
2018-03-25T23:30:57.070Z,70.70
2018-03-25T23:33:24.629Z,70.80
2018-03-25T23:35:52.154Z,70.80
2018-03-25T23:38:20.478Z,70.80
2018-03-25T23:40:48.007Z,70.80
2018-03-25T23:43:15.558Z,70.80
2018-03-25T23:45:44.661Z,70.80
2018-03-25T23:48:12.192Z,70.70
2018-03-25T23:50:39.741Z,70.70
2018-03-25T23:53:08.028Z,70.70
2018-03-25T23:55:36.333Z,70.70
2018-03-25T23:58:04.772Z,70.80
